createdAt,value
2019-02-23T00:01:36.707Z,5.10
2019-02-23T00:04:07.457Z,4.30
2019-02-23T00:06:38.090Z,4.50
2019-02-23T00:09:10.258Z,4.23
2019-02-23T00:11:41.177Z,3.80
2019-02-23T00:14:12.171Z,4.00
2019-02-23T00:16:44.120Z,4.27
2019-02-23T00:19:24.531Z,3.33
2019-02-23T00:21:47.134Z,4.30
2019-02-23T00:24:17.993Z,3.60
2019-02-23T00:26:49.127Z,5.40
2019-02-23T00:29:20.155Z,4.43
2019-02-23T00:31:50.776Z,4.50
2019-02-23T00:34:21.847Z,4.90
2019-02-23T00:36:52.775Z,4.83
2019-02-23T00:39:23.535Z,4.10
2019-02-23T00:41:54.110Z,4.80
2019-02-23T00:44:25.402Z,4.23
2019-02-23T00:46:56.280Z,3.83
2019-02-23T00:49:35.945Z,4.40
2019-02-23T00:51:59.969Z,3.97
2019-02-23T00:54:31.026Z,4.50
2019-02-23T00:57:02.054Z,4.50
2019-02-23T00:59:33.002Z,4.57
2019-02-23T01:02:03.614Z,4.83
2019-02-23T01:04:34.360Z,4.70
2019-02-23T01:07:05.116Z,4.33
2019-02-23T01:09:35.822Z,4.30
2019-02-23T01:12:06.696Z,4.33
2019-02-23T01:14:37.542Z,5.27
2019-02-23T01:17:08.369Z,4.70
2019-02-23T01:19:47.417Z,5.33
2019-02-23T01:22:11.939Z,4.07
2019-02-23T01:24:42.911Z,4.40
2019-02-23T01:27:13.735Z,4.37
2019-02-23T01:29:44.499Z,4.17
2019-02-23T01:32:15.027Z,4.60
2019-02-23T01:34:45.712Z,4.47
2019-02-23T01:37:16.597Z,4.50
2019-02-23T01:39:47.206Z,4.90
2019-02-23T01:42:18.126Z,4.43
2019-02-23T01:44:49.312Z,4.70
2019-02-23T01:47:20.207Z,4.63
2019-02-23T01:49:58.601Z,4.27
2019-02-23T01:52:23.256Z,4.47
2019-02-23T01:54:54.884Z,4.43
2019-02-23T01:57:25.745Z,5.70
2019-02-23T01:59:56.512Z,4.83
2019-02-23T02:02:27.194Z,4.70
2019-02-23T02:04:58.012Z,4.00
2019-02-23T02:07:29.091Z,4.40
2019-02-23T02:10:00.018Z,4.27
2019-02-23T02:12:30.764Z,4.27
2019-02-23T02:15:03.066Z,4.43
2019-02-23T02:17:34.676Z,4.57
2019-02-23T02:20:10.961Z,3.93
2019-02-23T02:22:38.551Z,4.50
2019-02-23T02:25:10.182Z,4.27
2019-02-23T02:27:41.369Z,4.80
2019-02-23T02:30:12.812Z,3.87
2019-02-23T02:32:43.589Z,5.00
2019-02-23T02:35:14.270Z,5.27
2019-02-23T02:37:45.253Z,4.90
2019-02-23T02:40:16.334Z,4.57
2019-02-23T02:42:47.137Z,4.97
2019-02-23T02:45:18.465Z,4.87
2019-02-23T02:47:49.143Z,5.23
2019-02-23T02:50:24.253Z,4.97
2019-02-23T02:52:52.469Z,4.37
2019-02-23T02:55:23.353Z,4.40
2019-02-23T02:57:55.288Z,3.60
2019-02-23T03:00:25.963Z,4.07
2019-02-23T03:02:56.739Z,4.63
2019-02-23T03:05:27.588Z,4.90
2019-02-23T03:07:58.312Z,4.80
2019-02-23T03:10:29.455Z,5.00
2019-02-23T03:13:00.244Z,4.87
2019-02-23T03:15:31.282Z,5.57
2019-02-23T03:18:02.090Z,5.20
2019-02-23T03:20:36.655Z,4.87
2019-02-23T03:23:05.276Z,5.37
2019-02-23T03:25:36.574Z,4.83
2019-02-23T03:28:07.677Z,5.63
2019-02-23T03:30:38.529Z,4.73
2019-02-23T03:33:09.422Z,4.67
2019-02-23T03:35:40.350Z,4.53
2019-02-23T03:38:10.946Z,5.17
2019-02-23T03:40:41.684Z,4.63
2019-02-23T03:43:12.721Z,5.23
2019-02-23T03:45:44.166Z,4.70
2019-02-23T03:48:15.059Z,4.83
2019-02-23T03:50:49.474Z,4.97
2019-02-23T03:53:19.289Z,3.97
2019-02-23T03:55:50.261Z,5.07
2019-02-23T03:58:21.528Z,4.37
2019-02-23T04:00:52.265Z,4.70
2019-02-23T04:03:23.050Z,4.87
2019-02-23T04:05:53.933Z,4.90
2019-02-23T04:08:24.644Z,4.77
2019-02-23T04:10:55.635Z,4.47
2019-02-23T04:13:26.189Z,5.67
2019-02-23T04:15:57.711Z,4.67
2019-02-23T04:18:28.252Z,4.20
2019-02-23T04:21:01.967Z,4.90
2019-02-23T04:23:31.753Z,4.80
2019-02-23T04:26:02.373Z,4.53
2019-02-23T04:28:32.985Z,5.10
2019-02-23T04:31:03.749Z,5.30
2019-02-23T04:33:34.292Z,3.97
2019-02-23T04:36:05.386Z,5.47
2019-02-23T04:38:36.023Z,5.23
2019-02-23T04:41:06.936Z,4.47
2019-02-23T04:43:38.311Z,4.93
2019-02-23T04:46:09.150Z,4.03
2019-02-23T04:48:40.032Z,4.77
2019-02-23T04:51:14.237Z,5.97
2019-02-23T04:53:43.371Z,5.03
2019-02-23T04:56:14.898Z,5.23
2019-02-23T04:58:46.812Z,4.97
2019-02-23T05:01:17.442Z,6.17
2019-02-23T05:03:48.516Z,5.03
2019-02-23T05:06:19.624Z,6.10
2019-02-23T05:08:50.441Z,5.97
2019-02-23T05:11:21.444Z,6.43
2019-02-23T05:13:52.032Z,6.20
2019-02-23T05:16:23.035Z,6.43
2019-02-23T05:18:53.611Z,6.27
2019-02-23T05:21:26.881Z,6.07
2019-02-23T05:23:56.331Z,5.57
2019-02-23T05:26:26.830Z,6.07
2019-02-23T05:28:58.728Z,5.83
2019-02-23T05:31:29.822Z,7.33
2019-02-23T05:34:00.789Z,6.70
2019-02-23T05:36:31.525Z,8.03
2019-02-23T05:39:02.381Z,8.30
2019-02-23T05:41:34.493Z,6.57
2019-02-23T05:44:05.148Z,7.90
2019-02-23T05:46:35.923Z,8.03
2019-02-23T05:49:06.826Z,7.50
2019-02-23T05:51:38.931Z,8.73
2019-02-23T05:54:09.839Z,7.90
2019-02-23T05:56:40.639Z,7.70
2019-02-23T05:59:11.568Z,8.07
2019-02-23T06:01:42.572Z,7.90
2019-02-23T06:04:13.850Z,7.10
2019-02-23T06:06:44.943Z,7.97
2019-02-23T06:09:16.088Z,8.07
2019-02-23T06:11:47.155Z,6.90
2019-02-23T06:14:18.013Z,9.40
2019-02-23T06:16:50.124Z,10.03
2019-02-23T06:19:21.135Z,10.07
2019-02-23T06:21:54.076Z,12.13
2019-02-23T06:24:24.036Z,11.37
2019-02-23T06:26:54.966Z,12.67
2019-02-23T06:29:25.761Z,11.20
2019-02-23T06:31:56.661Z,11.87
2019-02-23T06:34:27.505Z,12.50
2019-02-23T06:36:58.404Z,10.57
2019-02-23T06:39:29.080Z,9.30
2019-02-23T06:41:59.945Z,9.17
2019-02-23T06:44:30.869Z,10.33
2019-02-23T06:47:01.606Z,9.47
2019-02-23T06:49:32.087Z,9.60
2019-02-23T06:52:04.588Z,12.17
2019-02-23T06:54:35.146Z,12.23
2019-02-23T06:57:05.967Z,13.00
2019-02-23T06:59:36.722Z,11.73
2019-02-23T07:02:07.749Z,13.07
2019-02-23T07:04:38.990Z,11.33
2019-02-23T07:07:09.943Z,12.63
2019-02-23T07:09:41.086Z,11.93
2019-02-23T07:12:11.955Z,10.80
2019-02-23T07:14:43.047Z,9.07
2019-02-23T07:17:14.542Z,10.03
2019-02-23T07:19:45.375Z,9.70
2019-02-23T07:22:16.080Z,9.33
2019-02-23T07:24:47.048Z,8.50
2019-02-23T07:27:18.000Z,8.53
2019-02-23T07:29:48.795Z,9.60
2019-02-23T07:32:19.589Z,8.07
2019-02-23T07:34:50.145Z,8.27
2019-02-23T07:37:21.012Z,6.97
2019-02-23T07:39:51.569Z,7.87
2019-02-23T07:42:22.282Z,6.63
2019-02-23T07:44:52.836Z,6.70
2019-02-23T07:47:23.372Z,7.17
2019-02-23T07:49:53.921Z,6.60
2019-02-23T07:52:26.549Z,7.60
2019-02-23T07:54:57.052Z,6.47
2019-02-23T07:57:27.788Z,6.07
2019-02-23T07:59:58.882Z,6.20
2019-02-23T08:02:30.603Z,6.67
2019-02-23T08:05:01.610Z,6.40
2019-02-23T08:07:32.320Z,6.10
2019-02-23T08:10:03.441Z,6.57
2019-02-23T08:12:34.425Z,6.37
2019-02-23T08:15:05.887Z,5.50
2019-02-23T08:17:37.105Z,6.90
2019-02-23T08:20:08.385Z,6.13
2019-02-23T08:22:39.057Z,5.93
2019-02-23T08:25:10.137Z,6.67
2019-02-23T08:27:40.771Z,6.67
2019-02-23T08:30:12.556Z,14.20
2019-02-23T08:32:43.454Z,6.27
2019-02-23T08:35:14.336Z,13.50
2019-02-23T08:37:45.014Z,7.17
2019-02-23T08:40:15.993Z,7.37
2019-02-23T08:42:47.123Z,6.50
2019-02-23T08:45:17.806Z,7.20
2019-02-23T08:47:48.372Z,5.90
2019-02-23T08:50:19.300Z,5.67
2019-02-23T08:52:50.639Z,5.93
2019-02-23T08:55:21.598Z,7.00
2019-02-23T08:57:52.533Z,6.07
2019-02-23T09:00:23.112Z,5.10
2019-02-23T09:02:54.580Z,5.37
2019-02-23T09:05:25.586Z,6.03
2019-02-23T09:07:56.414Z,6.10
2019-02-23T09:10:27.146Z,5.90
2019-02-23T09:12:57.745Z,5.97
2019-02-23T09:15:28.324Z,6.43
2019-02-23T09:17:58.999Z,6.67
2019-02-23T09:20:29.812Z,7.57
2019-02-23T09:23:00.672Z,17.17
2019-02-23T09:25:31.476Z,9.40
2019-02-23T09:28:02.471Z,6.30
2019-02-23T09:30:33.389Z,5.57
2019-02-23T09:33:04.069Z,7.07
2019-02-23T09:35:35.563Z,8.27
2019-02-23T09:38:06.796Z,7.00
2019-02-23T09:40:38.157Z,4.53
2019-02-23T09:43:09.456Z,4.13
2019-02-23T09:45:40.822Z,4.20
2019-02-23T09:48:11.838Z,4.73
2019-02-23T09:50:43.466Z,4.77
2019-02-23T09:53:14.228Z,5.07
2019-02-23T09:55:44.841Z,4.27
2019-02-23T09:58:16.603Z,4.50
2019-02-23T10:00:47.673Z,4.33
2019-02-23T10:03:18.392Z,4.10
2019-02-23T10:05:49.143Z,4.93
2019-02-23T10:08:19.679Z,4.87
2019-02-23T10:10:52.018Z,4.75
2019-02-23T10:13:23.178Z,3.13
2019-02-23T10:15:54.076Z,3.80
2019-02-23T10:18:24.774Z,4.10
2019-02-23T10:20:55.697Z,3.57
2019-02-23T10:23:26.253Z,4.00
2019-02-23T10:25:57.061Z,3.87
2019-02-23T10:28:27.866Z,3.60
2019-02-23T10:30:58.901Z,4.43
2019-02-23T10:33:29.635Z,4.03
2019-02-23T10:36:00.188Z,4.30
2019-02-23T10:38:30.823Z,3.20
2019-02-23T10:41:01.528Z,3.98
2019-02-23T10:43:32.265Z,3.90
2019-02-23T10:46:03.802Z,4.50
2019-02-23T10:48:34.764Z,4.00
2019-02-23T10:51:06.049Z,4.30
2019-02-23T10:53:37.398Z,3.00
2019-02-23T10:56:08.413Z,2.70
2019-02-23T10:58:39.098Z,2.70
2019-02-23T11:01:10.009Z,2.97
2019-02-23T11:03:40.907Z,3.50
2019-02-23T11:06:11.919Z,2.80
2019-02-23T11:08:42.603Z,2.90
2019-02-23T11:11:13.558Z,2.80
2019-02-23T11:13:44.359Z,3.83
2019-02-23T11:16:15.505Z,3.70
2019-02-23T11:18:46.274Z,3.50
2019-02-23T11:21:17.306Z,3.20
2019-02-23T11:23:48.411Z,3.30
2019-02-23T11:26:19.356Z,3.23
2019-02-23T11:28:50.077Z,3.80
2019-02-23T11:31:21.042Z,3.53
2019-02-23T11:33:51.722Z,3.20
2019-02-23T11:36:22.347Z,3.53
2019-02-23T11:38:53.037Z,3.80
2019-02-23T11:41:23.948Z,3.10
2019-02-23T11:43:54.517Z,3.57
2019-02-23T11:46:25.257Z,2.50
2019-02-23T11:48:55.899Z,3.00
2019-02-23T11:51:26.750Z,3.40
2019-02-23T11:53:58.333Z,2.63
2019-02-23T11:56:29.327Z,2.80
2019-02-23T11:59:00.074Z,2.97
2019-02-23T12:01:30.712Z,3.33
2019-02-23T12:04:01.517Z,3.07
2019-02-23T12:06:32.574Z,2.40
2019-02-23T12:09:03.461Z,3.10
2019-02-23T12:11:36.025Z,3.17
2019-02-23T12:14:06.850Z,3.37
2019-02-23T12:16:39.213Z,3.77
2019-02-23T12:19:10.313Z,3.50
2019-02-23T12:21:41.355Z,3.10
2019-02-23T12:24:12.447Z,3.10
2019-02-23T12:26:43.341Z,3.10
2019-02-23T12:29:14.278Z,3.20
2019-02-23T12:31:45.008Z,3.10
2019-02-23T12:34:16.795Z,2.63
2019-02-23T12:36:48.987Z,3.37
2019-02-23T12:39:19.536Z,3.40
2019-02-23T12:41:50.597Z,3.33
2019-02-23T12:44:21.571Z,3.50
2019-02-23T12:46:52.611Z,3.37
2019-02-23T12:49:23.395Z,3.30
2019-02-23T12:51:54.224Z,3.20
2019-02-23T12:54:26.082Z,3.10
2019-02-23T12:56:57.763Z,3.70
2019-02-23T12:59:28.342Z,2.93
2019-02-23T13:01:59.008Z,3.67
2019-02-23T13:04:29.728Z,3.30
2019-02-23T13:07:00.324Z,3.40
2019-02-23T13:09:36.417Z,2.87
2019-02-23T13:12:29.138Z,3.47
2019-02-23T13:15:27.391Z,3.03
2019-02-23T13:18:35.042Z,3.10
2019-02-23T13:21:14.818Z,2.73
2019-02-23T13:24:32.527Z,3.30
2019-02-23T13:27:21.415Z,2.50
2019-02-23T13:30:28.912Z,3.30
2019-02-23T13:33:20.817Z,7.97
2019-02-23T13:36:34.905Z,4.40
2019-02-23T13:39:29.255Z,3.40
2019-02-23T13:42:30.034Z,4.00
2019-02-23T13:45:38.137Z,3.30
2019-02-23T13:48:31.759Z,3.60
2019-02-23T13:51:46.737Z,3.23
2019-02-23T13:55:07.435Z,3.33
2019-02-23T13:58:13.287Z,3.43
2019-02-23T14:01:00.534Z,3.67
2019-02-23T14:04:12.047Z,3.80
2019-02-23T14:07:18.913Z,2.97
2019-02-23T14:10:45.530Z,3.50
2019-02-23T14:14:02.007Z,3.30
2019-02-23T14:17:06.874Z,3.37
2019-02-23T14:20:05.849Z,3.47
2019-02-23T14:23:13.423Z,3.23
2019-02-23T14:26:33.999Z,3.10
2019-02-23T14:29:32.899Z,3.47
2019-02-23T14:32:38.665Z,5.20
2019-02-23T14:35:53.285Z,3.33
2019-02-23T14:39:04.471Z,3.50
2019-02-23T14:42:17.365Z,3.33
2019-02-23T14:45:31.107Z,4.13
2019-02-23T14:48:20.348Z,3.90
2019-02-23T14:51:24.416Z,3.53
2019-02-23T14:54:17.429Z,3.60
2019-02-23T14:57:12.788Z,4.23
2019-02-23T15:00:26.763Z,3.73
2019-02-23T15:03:50.781Z,3.70
2019-02-23T15:07:03.231Z,3.73
2019-02-23T15:10:26.013Z,4.07
2019-02-23T15:13:39.499Z,3.40
2019-02-23T15:16:41.728Z,3.60
2019-02-23T15:19:42.491Z,3.47
2019-02-23T15:23:12.929Z,3.47
2019-02-23T15:26:25.644Z,4.03
2019-02-23T15:29:30.201Z,4.30
2019-02-23T15:32:12.612Z,3.83
2019-02-23T15:35:32.441Z,4.60
2019-02-23T15:38:53.571Z,4.17
2019-02-23T15:42:22.378Z,4.43
2019-02-23T15:45:34.248Z,4.13
2019-02-23T15:48:51.481Z,4.37
2019-02-23T15:51:22.677Z,3.73
2019-02-23T15:53:53.541Z,3.60
2019-02-23T15:56:24.244Z,3.87
2019-02-23T15:58:55.271Z,4.83
2019-02-23T16:01:26.223Z,4.13
2019-02-23T16:03:56.734Z,3.57
2019-02-23T16:06:27.808Z,4.70
2019-02-23T16:08:58.434Z,5.43
2019-02-23T16:11:29.245Z,4.47
2019-02-23T16:14:00.651Z,5.50
2019-02-23T16:16:32.108Z,5.90
2019-02-23T16:19:03.015Z,7.07
2019-02-23T16:21:34.055Z,6.47
2019-02-23T16:24:05.210Z,6.97
2019-02-23T16:26:37.215Z,8.13
2019-02-23T16:29:08.202Z,7.37
2019-02-23T16:31:39.120Z,7.63
2019-02-23T16:34:10.189Z,7.67
2019-02-23T16:36:41.169Z,9.03
2019-02-23T16:39:12.487Z,9.53
2019-02-23T16:41:44.187Z,19.73
2019-02-23T16:44:15.059Z,16.60
2019-02-23T16:46:46.632Z,15.20
2019-02-23T16:49:17.629Z,6.73
2019-02-23T16:51:48.600Z,6.27
2019-02-23T16:54:19.284Z,7.17
2019-02-23T16:56:50.293Z,6.83
2019-02-23T16:59:21.083Z,7.50
2019-02-23T17:01:52.374Z,8.93
2019-02-23T17:04:23.528Z,10.10
2019-02-23T17:06:55.701Z,9.30
2019-02-23T17:09:26.718Z,11.77
2019-02-23T17:11:57.538Z,10.77
2019-02-23T17:14:28.258Z,8.60
2019-02-23T17:16:59.011Z,8.77
2019-02-23T17:19:31.225Z,10.37
2019-02-23T17:22:02.050Z,9.83
2019-02-23T17:24:35.139Z,9.63
2019-02-23T17:27:06.395Z,9.83
2019-02-23T17:29:37.301Z,9.57
2019-02-23T17:32:08.293Z,11.03
2019-02-23T17:34:39.293Z,10.47
2019-02-23T17:37:10.257Z,10.93
2019-02-23T17:39:41.377Z,10.17
2019-02-23T17:42:12.270Z,13.20
2019-02-23T17:44:43.042Z,17.50
2019-02-23T17:47:14.076Z,12.80
2019-02-23T17:49:45.030Z,17.23
2019-02-23T17:52:16.884Z,16.07
2019-02-23T17:54:47.675Z,14.17
2019-02-23T17:57:19.993Z,15.33
2019-02-23T17:59:50.586Z,18.03
2019-02-23T18:02:21.345Z,19.23
2019-02-23T18:04:52.248Z,18.53
2019-02-23T18:07:23.023Z,22.20
2019-02-23T18:09:53.813Z,20.10
2019-02-23T18:12:24.415Z,19.57
2019-02-23T18:14:55.228Z,20.27
2019-02-23T18:17:26.220Z,18.87
2019-02-23T18:19:57.157Z,19.23
2019-02-23T18:22:27.990Z,24.37
2019-02-23T18:24:58.840Z,17.77
2019-02-23T18:27:29.571Z,18.93
2019-02-23T18:30:09.454Z,17.33
2019-02-23T18:32:34.715Z,21.97
2019-02-23T18:35:06.249Z,20.83
2019-02-23T18:37:37.055Z,18.57
2019-02-23T18:40:08.525Z,19.77
2019-02-23T18:42:39.596Z,22.17
2019-02-23T18:45:11.013Z,22.70
2019-02-23T18:47:41.804Z,23.83
2019-02-23T18:50:12.943Z,24.47
2019-02-23T18:52:43.966Z,25.83
2019-02-23T18:55:14.874Z,23.17
2019-02-23T18:57:45.871Z,22.00
2019-02-23T19:00:24.156Z,18.40
2019-02-23T19:02:50.151Z,21.70
2019-02-23T19:05:20.933Z,20.80
2019-02-23T19:07:51.643Z,18.83
2019-02-23T19:10:22.460Z,18.00
2019-02-23T19:12:53.717Z,17.83
2019-02-23T19:15:24.515Z,18.03
2019-02-23T19:17:55.334Z,16.97
2019-02-23T19:20:27.190Z,18.50
2019-02-23T19:22:58.304Z,17.90
2019-02-23T19:25:29.659Z,18.97
2019-02-23T19:28:00.467Z,19.07
2019-02-23T19:30:31.383Z,19.13
2019-02-23T19:33:02.269Z,20.80
2019-02-23T19:35:33.056Z,31.57
2019-02-23T19:38:04.093Z,33.50
2019-02-23T19:40:34.741Z,23.33
2019-02-23T19:43:05.348Z,23.73
2019-02-23T19:45:36.347Z,22.37
2019-02-23T19:48:08.245Z,22.50
2019-02-23T19:50:43.038Z,21.10
2019-02-23T19:53:13.982Z,22.63
2019-02-23T19:55:45.119Z,35.53
2019-02-23T19:58:17.015Z,41.70
2019-02-23T20:00:48.611Z,23.50
2019-02-23T20:03:19.614Z,37.47
2019-02-23T20:05:51.046Z,29.37
2019-02-23T20:08:22.208Z,29.53
2019-02-23T20:10:52.977Z,32.13
2019-02-23T20:13:24.234Z,27.67
2019-02-23T20:15:54.862Z,28.47
2019-02-23T20:18:25.930Z,34.20
2019-02-23T20:20:57.157Z,35.27
2019-02-23T20:23:28.047Z,29.07
2019-02-23T20:25:59.289Z,26.80
2019-02-23T20:28:30.740Z,23.20
2019-02-23T20:31:02.499Z,27.30
2019-02-23T20:33:33.412Z,29.60
2019-02-23T20:36:04.716Z,32.90
2019-02-23T20:38:35.599Z,31.23
2019-02-23T20:41:06.511Z,30.10
2019-02-23T20:43:37.481Z,29.47
2019-02-23T20:46:08.802Z,29.90
2019-02-23T20:48:40.014Z,32.77
2019-02-23T20:51:11.459Z,29.90
2019-02-23T20:53:42.816Z,27.33
2019-02-23T20:56:13.748Z,25.07
2019-02-23T20:58:44.864Z,24.53
2019-02-23T21:01:15.947Z,25.00
2019-02-23T21:03:46.983Z,25.73
2019-02-23T21:06:18.226Z,24.77
2019-02-23T21:08:49.060Z,24.43
2019-02-23T21:11:20.072Z,22.93
2019-02-23T21:13:51.678Z,25.00
2019-02-23T21:16:22.387Z,22.47
2019-02-23T21:18:53.190Z,23.00
2019-02-23T21:21:23.828Z,26.23
2019-02-23T21:23:54.725Z,27.47
2019-02-23T21:26:25.931Z,26.77
2019-02-23T21:28:56.913Z,49.87
2019-02-23T21:31:28.022Z,38.70
2019-02-23T21:33:58.935Z,40.70
2019-02-23T21:36:30.111Z,29.40
2019-02-23T21:39:01.186Z,29.60
2019-02-23T21:41:34.860Z,28.07
2019-02-23T21:44:05.671Z,25.77
2019-02-23T21:46:36.293Z,28.73
2019-02-23T21:49:07.390Z,26.13
2019-02-23T21:51:38.201Z,25.93
2019-02-23T21:54:10.402Z,26.73
2019-02-23T21:56:42.566Z,25.50
2019-02-23T21:59:13.883Z,24.53
2019-02-23T22:01:45.359Z,27.00
2019-02-23T22:04:17.342Z,25.80
2019-02-23T22:06:48.490Z,28.17
2019-02-23T22:09:19.694Z,31.67
2019-02-23T22:11:50.798Z,29.87
2019-02-23T22:14:22.068Z,30.20
2019-02-23T22:16:53.337Z,31.23
2019-02-23T22:19:24.172Z,31.97
2019-02-23T22:21:55.452Z,31.97
2019-02-23T22:24:26.573Z,32.80
2019-02-23T22:26:57.807Z,50.67
2019-02-23T22:29:31.065Z,41.37
2019-02-23T22:32:03.453Z,54.97
2019-02-23T22:34:34.906Z,41.77
2019-02-23T22:37:06.050Z,37.30
2019-02-23T22:39:37.229Z,35.17
2019-02-23T22:42:08.402Z,30.93
2019-02-23T22:44:39.648Z,32.20
2019-02-23T22:47:11.084Z,30.13
2019-02-23T22:49:42.729Z,34.67
2019-02-23T22:52:14.142Z,32.67
2019-02-23T22:54:45.305Z,27.67
2019-02-23T22:57:16.437Z,28.97
2019-02-23T22:59:47.242Z,28.23
2019-02-23T23:02:18.508Z,27.50
2019-02-23T23:04:49.608Z,28.90
2019-02-23T23:07:20.491Z,29.30
2019-02-23T23:09:51.883Z,30.07
2019-02-23T23:12:22.947Z,34.80
2019-02-23T23:14:54.267Z,31.07
2019-02-23T23:17:25.706Z,29.47
2019-02-23T23:19:57.138Z,31.30
2019-02-23T23:22:28.338Z,29.43
2019-02-23T23:24:59.657Z,28.97
2019-02-23T23:27:30.799Z,30.13
2019-02-23T23:30:02.450Z,32.30
2019-02-23T23:32:34.513Z,32.77
2019-02-23T23:35:05.905Z,31.70
2019-02-23T23:37:36.949Z,33.10
2019-02-23T23:40:08.323Z,34.27
2019-02-23T23:42:40.061Z,35.97
2019-02-23T23:45:11.015Z,35.77
2019-02-23T23:47:42.042Z,32.50
2019-02-23T23:50:13.143Z,35.07
2019-02-23T23:52:43.975Z,31.83
2019-02-23T23:55:14.951Z,29.17
2019-02-23T23:57:45.613Z,31.30
